sensor_id;sensor_type;location;lat;lon;timestamp;P1;durP1;ratioP1;P2;durP2;ratioP2
3274;SDS011;1649;53.672;10.064;2023-03-31T00:01:46;22.83;;;6.97;;
3274;SDS011;1649;53.672;10.064;2023-03-31T00:04:12;26.00;;;7.83;;
3274;SDS011;1649;53.672;10.064;2023-03-31T00:06:38;25.80;;;8.07;;
3274;SDS011;1649;53.672;10.064;2023-03-31T00:09:08;27.30;;;7.63;;
3274;SDS011;1649;53.672;10.064;2023-03-31T00:11:38;17.83;;;8.27;;
3274;SDS011;1649;53.672;10.064;2023-03-31T00:14:04;25.00;;;8.80;;
3274;SDS011;1649;53.672;10.064;2023-03-31T00:16:33;33.80;;;9.87;;
3274;SDS011;1649;53.672;10.064;2023-03-31T00:18:59;35.37;;;9.23;;
3274;SDS011;1649;53.672;10.064;2023-03-31T00:21:26;29.03;;;9.27;;
3274;SDS011;1649;53.672;10.064;2023-03-31T00:23:59;28.53;;;9.00;;
3274;SDS011;1649;53.672;10.064;2023-03-31T00:26:27;33.90;;;8.60;;
3274;SDS011;1649;53.672;10.064;2023-03-31T00:28:53;29.27;;;8.83;;
3274;SDS011;1649;53.672;10.064;2023-03-31T00:31:20;32.20;;;8.30;;
3274;SDS011;1649;53.672;10.064;2023-03-31T00:33:46;29.17;;;9.27;;
3274;SDS011;1649;53.672;10.064;2023-03-31T00:36:12;23.93;;;7.93;;
3274;SDS011;1649;53.672;10.064;2023-03-31T00:38:41;22.43;;;7.80;;
3274;SDS011;1649;53.672;10.064;2023-03-31T00:41:10;28.53;;;8.67;;
3274;SDS011;1649;53.672;10.064;2023-03-31T00:43:36;39.50;;;9.03;;
3274;SDS011;1649;53.672;10.064;2023-03-31T00:46:06;25.40;;;8.50;;
3274;SDS011;1649;53.672;10.064;2023-03-31T00:48:49;29.80;;;9.47;;
3274;SDS011;1649;53.672;10.064;2023-03-31T00:51:21;24.07;;;9.30;;
3274;SDS011;1649;53.672;10.064;2023-03-31T00:53:52;23.83;;;9.00;;
3274;SDS011;1649;53.672;10.064;2023-03-31T00:56:23;30.30;;;8.30;;
3274;SDS011;1649;53.672;10.064;2023-03-31T00:58:51;29.90;;;8.50;;
3274;SDS011;1649;53.672;10.064;2023-03-31T01:01:22;31.53;;;7.87;;
3274;SDS011;1649;53.672;10.064;2023-03-31T01:03:50;27.57;;;8.27;;
3274;SDS011;1649;53.672;10.064;2023-03-31T01:06:17;24.43;;;7.10;;
3274;SDS011;1649;53.672;10.064;2023-03-31T01:08:47;26.73;;;7.20;;
3274;SDS011;1649;53.672;10.064;2023-03-31T01:11:15;16.57;;;5.40;;
3274;SDS011;1649;53.672;10.064;2023-03-31T01:13:44;24.57;;;6.43;;
3274;SDS011;1649;53.672;10.064;2023-03-31T01:16:14;29.70;;;6.70;;
3274;SDS011;1649;53.672;10.064;2023-03-31T01:18:40;22.17;;;5.93;;
3274;SDS011;1649;53.672;10.064;2023-03-31T01:21:21;31.40;;;6.70;;
3274;SDS011;1649;53.672;10.064;2023-03-31T01:38:34;21.13;;;4.10;;
3274;SDS011;1649;53.672;10.064;2023-03-31T01:41:07;16.07;;;5.17;;
3274;SDS011;1649;53.672;10.064;2023-03-31T01:44:01;19.33;;;5.30;;
3274;SDS011;1649;53.672;10.064;2023-03-31T01:46:59;26.47;;;5.07;;
3274;SDS011;1649;53.672;10.064;2023-03-31T01:52:13;19.37;;;4.97;;
3274;SDS011;1649;53.672;10.064;2023-03-31T01:55:10;21.50;;;5.67;;
3274;SDS011;1649;53.672;10.064;2023-03-31T02:00:19;23.00;;;5.57;;
3274;SDS011;1649;53.672;10.064;2023-03-31T02:05:20;20.57;;;5.60;;
3274;SDS011;1649;53.672;10.064;2023-03-31T02:07:51;22.23;;;5.47;;
3274;SDS011;1649;53.672;10.064;2023-03-31T02:10:36;22.87;;;5.43;;
3274;SDS011;1649;53.672;10.064;2023-03-31T02:13:04;22.60;;;4.20;;
3274;SDS011;1649;53.672;10.064;2023-03-31T02:15:35;27.93;;;4.97;;
3274;SDS011;1649;53.672;10.064;2023-03-31T02:18:04;27.87;;;4.83;;
3274;SDS011;1649;53.672;10.064;2023-03-31T02:20:34;22.53;;;4.60;;
3274;SDS011;1649;53.672;10.064;2023-03-31T02:23:08;19.90;;;4.50;;
3274;SDS011;1649;53.672;10.064;2023-03-31T02:25:45;25.27;;;5.50;;
3274;SDS011;1649;53.672;10.064;2023-03-31T02:28:17;16.77;;;4.83;;
3274;SDS011;1649;53.672;10.064;2023-03-31T02:31:02;23.93;;;5.03;;
3274;SDS011;1649;53.672;10.064;2023-03-31T02:33:37;19.53;;;4.60;;
3274;SDS011;1649;53.672;10.064;2023-03-31T02:36:03;18.30;;;4.13;;
3274;SDS011;1649;53.672;10.064;2023-03-31T02:38:31;23.83;;;5.00;;
3274;SDS011;1649;53.672;10.064;2023-03-31T02:41:02;20.83;;;4.73;;
3274;SDS011;1649;53.672;10.064;2023-03-31T02:43:28;17.27;;;5.20;;
3274;SDS011;1649;53.672;10.064;2023-03-31T02:45:53;17.50;;;4.40;;
3274;SDS011;1649;53.672;10.064;2023-03-31T02:50:57;11.10;;;4.90;;
3274;SDS011;1649;53.672;10.064;2023-03-31T02:59:13;26.73;;;6.00;;
3274;SDS011;1649;53.672;10.064;2023-03-31T03:04:34;17.77;;;5.87;;
3274;SDS011;1649;53.672;10.064;2023-03-31T03:13:22;23.97;;;7.50;;
3274;SDS011;1649;53.672;10.064;2023-03-31T03:16:03;22.30;;;6.83;;
3274;SDS011;1649;53.672;10.064;2023-03-31T03:18:30;22.17;;;6.53;;
3274;SDS011;1649;53.672;10.064;2023-03-31T03:20:56;19.97;;;7.30;;
3274;SDS011;1649;53.672;10.064;2023-03-31T03:23:21;21.77;;;7.33;;
3274;SDS011;1649;53.672;10.064;2023-03-31T03:25:47;23.17;;;8.00;;
3274;SDS011;1649;53.672;10.064;2023-03-31T03:28:12;20.73;;;7.23;;
3274;SDS011;1649;53.672;10.064;2023-03-31T03:30:38;20.03;;;7.40;;
3274;SDS011;1649;53.672;10.064;2023-03-31T03:33:04;23.67;;;7.07;;
3274;SDS011;1649;53.672;10.064;2023-03-31T03:35:31;25.97;;;7.20;;
3274;SDS011;1649;53.672;10.064;2023-03-31T03:37:57;24.30;;;7.33;;
3274;SDS011;1649;53.672;10.064;2023-03-31T03:40:23;21.77;;;7.77;;
3274;SDS011;1649;53.672;10.064;2023-03-31T03:42:48;23.17;;;8.67;;
3274;SDS011;1649;53.672;10.064;2023-03-31T03:45:14;23.00;;;7.37;;
3274;SDS011;1649;53.672;10.064;2023-03-31T03:47:40;26.80;;;7.90;;
3274;SDS011;1649;53.672;10.064;2023-03-31T03:50:05;22.40;;;8.33;;
3274;SDS011;1649;53.672;10.064;2023-03-31T03:52:31;14.30;;;7.57;;
3274;SDS011;1649;53.672;10.064;2023-03-31T03:54:57;21.23;;;7.20;;
3274;SDS011;1649;53.672;10.064;2023-03-31T03:57:22;21.83;;;7.60;;
3274;SDS011;1649;53.672;10.064;2023-03-31T03:59:48;20.23;;;7.57;;
3274;SDS011;1649;53.672;10.064;2023-03-31T04:02:13;17.93;;;8.07;;
3274;SDS011;1649;53.672;10.064;2023-03-31T04:04:39;14.37;;;6.70;;
3274;SDS011;1649;53.672;10.064;2023-03-31T04:07:04;21.00;;;7.60;;
3274;SDS011;1649;53.672;10.064;2023-03-31T04:09:30;27.50;;;8.10;;
3274;SDS011;1649;53.672;10.064;2023-03-31T04:11:55;17.50;;;6.80;;
3274;SDS011;1649;53.672;10.064;2023-03-31T04:14:21;18.97;;;7.30;;
3274;SDS011;1649;53.672;10.064;2023-03-31T04:16:46;19.50;;;8.00;;
3274;SDS011;1649;53.672;10.064;2023-03-31T04:19:12;22.40;;;7.40;;
3274;SDS011;1649;53.672;10.064;2023-03-31T04:21:41;18.90;;;7.50;;
3274;SDS011;1649;53.672;10.064;2023-03-31T04:24:09;22.77;;;8.23;;
3274;SDS011;1649;53.672;10.064;2023-03-31T04:26:36;21.07;;;8.27;;
3274;SDS011;1649;53.672;10.064;2023-03-31T04:29:10;19.70;;;7.80;;
3274;SDS011;1649;53.672;10.064;2023-03-31T04:31:37;19.93;;;7.97;;
3274;SDS011;1649;53.672;10.064;2023-03-31T04:34:06;19.77;;;7.90;;
3274;SDS011;1649;53.672;10.064;2023-03-31T04:36:37;34.00;;;8.53;;
3274;SDS011;1649;53.672;10.064;2023-03-31T04:39:06;21.53;;;8.93;;
3274;SDS011;1649;53.672;10.064;2023-03-31T04:41:34;20.97;;;9.00;;
3274;SDS011;1649;53.672;10.064;2023-03-31T04:44:00;23.80;;;9.60;;
3274;SDS011;1649;53.672;10.064;2023-03-31T04:46:26;22.13;;;9.47;;
3274;SDS011;1649;53.672;10.064;2023-03-31T04:48:51;21.13;;;9.53;;
3274;SDS011;1649;53.672;10.064;2023-03-31T04:51:17;23.33;;;9.40;;
3274;SDS011;1649;53.672;10.064;2023-03-31T04:53:44;27.87;;;10.10;;
3274;SDS011;1649;53.672;10.064;2023-03-31T04:56:10;24.80;;;9.33;;
3274;SDS011;1649;53.672;10.064;2023-03-31T04:58:36;26.93;;;9.80;;
3274;SDS011;1649;53.672;10.064;2023-03-31T05:01:02;22.87;;;10.03;;
3274;SDS011;1649;53.672;10.064;2023-03-31T05:03:30;22.47;;;10.40;;
3274;SDS011;1649;53.672;10.064;2023-03-31T05:05:56;33.23;;;11.13;;
3274;SDS011;1649;53.672;10.064;2023-03-31T05:08:22;24.23;;;10.40;;
3274;SDS011;1649;53.672;10.064;2023-03-31T05:10:47;30.80;;;11.77;;
3274;SDS011;1649;53.672;10.064;2023-03-31T05:13:13;30.33;;;11.80;;
3274;SDS011;1649;53.672;10.064;2023-03-31T05:15:38;23.83;;;11.43;;
3274;SDS011;1649;53.672;10.064;2023-03-31T05:18:04;25.17;;;11.07;;
3274;SDS011;1649;53.672;10.064;2023-03-31T05:20:33;26.10;;;11.80;;
3274;SDS011;1649;53.672;10.064;2023-03-31T05:22:58;35.00;;;12.87;;
3274;SDS011;1649;53.672;10.064;2023-03-31T05:25:24;22.13;;;10.60;;
3274;SDS011;1649;53.672;10.064;2023-03-31T05:27:50;24.90;;;12.00;;
3274;SDS011;1649;53.672;10.064;2023-03-31T05:30:16;28.63;;;11.90;;
3274;SDS011;1649;53.672;10.064;2023-03-31T05:32:42;23.37;;;12.10;;
3274;SDS011;1649;53.672;10.064;2023-03-31T05:35:08;21.57;;;11.60;;
3274;SDS011;1649;53.672;10.064;2023-03-31T05:37:34;31.50;;;12.03;;
3274;SDS011;1649;53.672;10.064;2023-03-31T05:40:00;26.70;;;12.23;;
3274;SDS011;1649;53.672;10.064;2023-03-31T05:42:25;27.40;;;12.70;;
3274;SDS011;1649;53.672;10.064;2023-03-31T05:44:51;23.90;;;12.30;;
3274;SDS011;1649;53.672;10.064;2023-03-31T05:47:16;27.93;;;11.10;;
3274;SDS011;1649;53.672;10.064;2023-03-31T05:49:42;27.80;;;12.47;;
3274;SDS011;1649;53.672;10.064;2023-03-31T05:52:08;26.50;;;11.87;;
3274;SDS011;1649;53.672;10.064;2023-03-31T05:54:34;26.50;;;12.27;;
3274;SDS011;1649;53.672;10.064;2023-03-31T05:57:00;29.83;;;13.70;;
3274;SDS011;1649;53.672;10.064;2023-03-31T05:59:26;25.57;;;13.00;;
3274;SDS011;1649;53.672;10.064;2023-03-31T06:01:51;25.63;;;11.87;;
3274;SDS011;1649;53.672;10.064;2023-03-31T06:04:17;32.33;;;11.63;;
3274;SDS011;1649;53.672;10.064;2023-03-31T06:06:43;22.73;;;11.60;;
3274;SDS011;1649;53.672;10.064;2023-03-31T06:09:10;25.77;;;12.47;;
3274;SDS011;1649;53.672;10.064;2023-03-31T06:11:38;29.30;;;11.97;;
3274;SDS011;1649;53.672;10.064;2023-03-31T06:14:04;21.90;;;11.07;;
3274;SDS011;1649;53.672;10.064;2023-03-31T06:16:29;27.00;;;12.33;;
3274;SDS011;1649;53.672;10.064;2023-03-31T06:18:55;23.03;;;10.27;;
3274;SDS011;1649;53.672;10.064;2023-03-31T06:21:21;24.13;;;12.63;;
3274;SDS011;1649;53.672;10.064;2023-03-31T06:23:46;24.33;;;11.50;;
3274;SDS011;1649;53.672;10.064;2023-03-31T06:26:13;21.37;;;10.20;;
3274;SDS011;1649;53.672;10.064;2023-03-31T06:28:41;20.90;;;10.73;;
3274;SDS011;1649;53.672;10.064;2023-03-31T06:31:09;25.80;;;11.10;;
3274;SDS011;1649;53.672;10.064;2023-03-31T06:33:36;22.10;;;10.53;;
3274;SDS011;1649;53.672;10.064;2023-03-31T06:36:03;19.93;;;10.03;;
3274;SDS011;1649;53.672;10.064;2023-03-31T06:38:30;16.77;;;9.03;;
3274;SDS011;1649;53.672;10.064;2023-03-31T06:40:56;24.80;;;9.17;;
3274;SDS011;1649;53.672;10.064;2023-03-31T06:43:22;19.70;;;9.17;;
3274;SDS011;1649;53.672;10.064;2023-03-31T06:45:47;25.10;;;10.07;;
3274;SDS011;1649;53.672;10.064;2023-03-31T06:48:13;24.73;;;10.43;;
3274;SDS011;1649;53.672;10.064;2023-03-31T06:50:39;24.50;;;10.33;;
3274;SDS011;1649;53.672;10.064;2023-03-31T06:53:06;21.00;;;8.30;;
3274;SDS011;1649;53.672;10.064;2023-03-31T06:55:32;18.80;;;8.93;;
3274;SDS011;1649;53.672;10.064;2023-03-31T06:57:58;20.33;;;9.53;;
3274;SDS011;1649;53.672;10.064;2023-03-31T07:00:24;21.27;;;8.43;;
3274;SDS011;1649;53.672;10.064;2023-03-31T07:02:51;17.93;;;7.83;;
3274;SDS011;1649;53.672;10.064;2023-03-31T07:05:17;16.50;;;8.70;;
3274;SDS011;1649;53.672;10.064;2023-03-31T07:07:43;19.70;;;8.63;;
3274;SDS011;1649;53.672;10.064;2023-03-31T07:10:09;19.07;;;9.30;;
3274;SDS011;1649;53.672;10.064;2023-03-31T07:12:35;18.53;;;8.27;;
3274;SDS011;1649;53.672;10.064;2023-03-31T07:15:01;19.90;;;8.07;;
3274;SDS011;1649;53.672;10.064;2023-03-31T07:17:26;21.50;;;8.13;;
3274;SDS011;1649;53.672;10.064;2023-03-31T07:19:52;16.80;;;8.70;;
3274;SDS011;1649;53.672;10.064;2023-03-31T07:22:18;18.10;;;7.73;;
3274;SDS011;1649;53.672;10.064;2023-03-31T07:24:43;15.73;;;8.37;;
3274;SDS011;1649;53.672;10.064;2023-03-31T07:27:09;21.67;;;8.00;;
3274;SDS011;1649;53.672;10.064;2023-03-31T07:29:34;25.87;;;9.23;;
3274;SDS011;1649;53.672;10.064;2023-03-31T07:32:00;27.97;;;9.67;;
3274;SDS011;1649;53.672;10.064;2023-03-31T07:34:25;17.73;;;8.37;;
3274;SDS011;1649;53.672;10.064;2023-03-31T07:36:53;18.30;;;7.80;;
3274;SDS011;1649;53.672;10.064;2023-03-31T07:39:20;20.00;;;8.20;;
3274;SDS011;1649;53.672;10.064;2023-03-31T07:41:46;19.90;;;8.30;;
3274;SDS011;1649;53.672;10.064;2023-03-31T07:44:11;16.73;;;7.77;;
3274;SDS011;1649;53.672;10.064;2023-03-31T07:46:37;15.73;;;8.50;;
3274;SDS011;1649;53.672;10.064;2023-03-31T07:49:03;21.67;;;9.60;;
3274;SDS011;1649;53.672;10.064;2023-03-31T07:51:29;19.77;;;7.73;;
3274;SDS011;1649;53.672;10.064;2023-03-31T07:53:55;13.90;;;8.63;;
3274;SDS011;1649;53.672;10.064;2023-03-31T07:56:22;19.47;;;10.00;;
3274;SDS011;1649;53.672;10.064;2023-03-31T07:58:48;19.20;;;8.60;;
3274;SDS011;1649;53.672;10.064;2023-03-31T08:01:16;16.50;;;9.93;;
3274;SDS011;1649;53.672;10.064;2023-03-31T08:03:44;17.60;;;9.10;;
3274;SDS011;1649;53.672;10.064;2023-03-31T08:06:11;13.70;;;7.97;;
3274;SDS011;1649;53.672;10.064;2023-03-31T08:08:42;16.43;;;9.50;;
3274;SDS011;1649;53.672;10.064;2023-03-31T08:11:08;22.50;;;10.20;;
3274;SDS011;1649;53.672;10.064;2023-03-31T08:13:34;23.57;;;9.87;;
3274;SDS011;1649;53.672;10.064;2023-03-31T08:16:00;23.10;;;10.23;;
3274;SDS011;1649;53.672;10.064;2023-03-31T08:18:25;18.87;;;9.07;;
3274;SDS011;1649;53.672;10.064;2023-03-31T08:20:51;18.50;;;8.77;;
3274;SDS011;1649;53.672;10.064;2023-03-31T08:23:16;20.17;;;11.17;;
3274;SDS011;1649;53.672;10.064;2023-03-31T08:25:42;17.03;;;10.60;;
3274;SDS011;1649;53.672;10.064;2023-03-31T08:28:07;15.67;;;11.10;;
3274;SDS011;1649;53.672;10.064;2023-03-31T08:30:37;19.90;;;10.57;;
3274;SDS011;1649;53.672;10.064;2023-03-31T08:33:04;17.17;;;9.37;;
3274;SDS011;1649;53.672;10.064;2023-03-31T08:35:30;15.60;;;8.97;;
3274;SDS011;1649;53.672;10.064;2023-03-31T08:37:55;17.37;;;9.27;;
3274;SDS011;1649;53.672;10.064;2023-03-31T08:40:22;16.80;;;8.33;;
3274;SDS011;1649;53.672;10.064;2023-03-31T08:43:07;16.77;;;8.70;;
3274;SDS011;1649;53.672;10.064;2023-03-31T08:45:40;12.10;;;7.20;;
3274;SDS011;1649;53.672;10.064;2023-03-31T08:48:10;16.57;;;7.90;;
3274;SDS011;1649;53.672;10.064;2023-03-31T08:50:59;17.17;;;8.37;;
3274;SDS011;1649;53.672;10.064;2023-03-31T08:53:51;16.13;;;8.60;;
3274;SDS011;1649;53.672;10.064;2023-03-31T08:56:34;19.10;;;9.00;;
3274;SDS011;1649;53.672;10.064;2023-03-31T08:59:03;18.77;;;9.67;;
3274;SDS011;1649;53.672;10.064;2023-03-31T09:09:51;18.93;;;10.40;;
3274;SDS011;1649;53.672;10.064;2023-03-31T09:12:45;17.73;;;9.27;;
3274;SDS011;1649;53.672;10.064;2023-03-31T09:15:28;20.50;;;9.87;;
3274;SDS011;1649;53.672;10.064;2023-03-31T09:18:16;18.63;;;9.10;;
3274;SDS011;1649;53.672;10.064;2023-03-31T09:20:51;21.00;;;10.53;;
3274;SDS011;1649;53.672;10.064;2023-03-31T09:23:26;21.17;;;10.43;;
3274;SDS011;1649;53.672;10.064;2023-03-31T09:25:56;19.10;;;9.17;;
3274;SDS011;1649;53.672;10.064;2023-03-31T09:28:38;18.10;;;11.30;;
3274;SDS011;1649;53.672;10.064;2023-03-31T09:31:07;17.50;;;10.30;;
3274;SDS011;1649;53.672;10.064;2023-03-31T09:33:41;16.80;;;10.70;;
3274;SDS011;1649;53.672;10.064;2023-03-31T09:36:16;17.70;;;9.10;;
3274;SDS011;1649;53.672;10.064;2023-03-31T09:38:44;14.80;;;9.03;;
3274;SDS011;1649;53.672;10.064;2023-03-31T09:41:11;14.00;;;7.80;;
3274;SDS011;1649;53.672;10.064;2023-03-31T09:43:40;17.17;;;8.97;;
3274;SDS011;1649;53.672;10.064;2023-03-31T09:46:14;15.53;;;8.33;;
3274;SDS011;1649;53.672;10.064;2023-03-31T09:48:54;12.90;;;7.40;;
3274;SDS011;1649;53.672;10.064;2023-03-31T09:51:36;12.93;;;8.03;;
3274;SDS011;1649;53.672;10.064;2023-03-31T09:54:23;12.03;;;6.77;;
3274;SDS011;1649;53.672;10.064;2023-03-31T09:56:53;13.73;;;6.73;;
3274;SDS011;1649;53.672;10.064;2023-03-31T10:01:46;12.80;;;6.93;;
3274;SDS011;1649;53.672;10.064;2023-03-31T10:04:16;13.20;;;7.63;;
3274;SDS011;1649;53.672;10.064;2023-03-31T10:06:45;18.90;;;7.43;;
3274;SDS011;1649;53.672;10.064;2023-03-31T10:09:11;13.70;;;7.90;;
3274;SDS011;1649;53.672;10.064;2023-03-31T10:11:37;15.00;;;8.93;;
3274;SDS011;1649;53.672;10.064;2023-03-31T10:14:04;17.77;;;8.77;;
3274;SDS011;1649;53.672;10.064;2023-03-31T10:16:44;11.90;;;8.37;;
3274;SDS011;1649;53.672;10.064;2023-03-31T10:21:45;16.27;;;8.10;;
3274;SDS011;1649;53.672;10.064;2023-03-31T10:24:18;16.43;;;7.93;;
3274;SDS011;1649;53.672;10.064;2023-03-31T10:26:46;18.50;;;8.90;;
3274;SDS011;1649;53.672;10.064;2023-03-31T10:29:15;12.57;;;8.07;;
3274;SDS011;1649;53.672;10.064;2023-03-31T10:31:46;11.97;;;6.50;;
3274;SDS011;1649;53.672;10.064;2023-03-31T10:34:13;14.30;;;8.63;;
3274;SDS011;1649;53.672;10.064;2023-03-31T10:36:47;16.13;;;9.13;;
3274;SDS011;1649;53.672;10.064;2023-03-31T10:39:16;17.93;;;9.47;;
3274;SDS011;1649;53.672;10.064;2023-03-31T10:41:43;12.83;;;8.23;;
3274;SDS011;1649;53.672;10.064;2023-03-31T10:44:36;16.33;;;8.63;;
3274;SDS011;1649;53.672;10.064;2023-03-31T10:47:04;17.33;;;8.70;;
3274;SDS011;1649;53.672;10.064;2023-03-31T10:49:40;18.27;;;10.63;;
3274;SDS011;1649;53.672;10.064;2023-03-31T10:52:18;17.10;;;9.70;;
3274;SDS011;1649;53.672;10.064;2023-03-31T10:54:50;19.53;;;9.83;;
3274;SDS011;1649;53.672;10.064;2023-03-31T10:57:30;15.67;;;9.40;;
3274;SDS011;1649;53.672;10.064;2023-03-31T11:05:48;15.90;;;9.50;;
3274;SDS011;1649;53.672;10.064;2023-03-31T11:08:42;15.23;;;9.60;;
3274;SDS011;1649;53.672;10.064;2023-03-31T11:11:21;15.20;;;8.80;;
3274;SDS011;1649;53.672;10.064;2023-03-31T11:14:05;13.57;;;7.87;;
3274;SDS011;1649;53.672;10.064;2023-03-31T11:16:49;12.07;;;7.97;;
3274;SDS011;1649;53.672;10.064;2023-03-31T11:19:23;13.70;;;7.37;;
3274;SDS011;1649;53.672;10.064;2023-03-31T11:22:17;12.87;;;8.70;;
3274;SDS011;1649;53.672;10.064;2023-03-31T11:32:55;10.33;;;5.70;;
3274;SDS011;1649;53.672;10.064;2023-03-31T11:38:34;14.27;;;6.47;;
3274;SDS011;1649;53.672;10.064;2023-03-31T11:41:12;13.10;;;7.00;;
3274;SDS011;1649;53.672;10.064;2023-03-31T11:43:43;10.03;;;6.43;;
3274;SDS011;1649;53.672;10.064;2023-03-31T11:46:26;12.17;;;6.77;;
3274;SDS011;1649;53.672;10.064;2023-03-31T11:49:02;13.50;;;6.13;;
3274;SDS011;1649;53.672;10.064;2023-03-31T11:51:33;13.17;;;5.67;;
3274;SDS011;1649;53.672;10.064;2023-03-31T11:54:15;11.13;;;5.60;;
3274;SDS011;1649;53.672;10.064;2023-03-31T11:56:46;10.23;;;5.57;;
3274;SDS011;1649;53.672;10.064;2023-03-31T11:59:14;11.17;;;5.57;;
3274;SDS011;1649;53.672;10.064;2023-03-31T12:01:47;8.57;;;4.80;;
3274;SDS011;1649;53.672;10.064;2023-03-31T12:07:51;12.60;;;4.97;;
3274;SDS011;1649;53.672;10.064;2023-03-31T12:10:12;8.73;;;5.30;;
3274;SDS011;1649;53.672;10.064;2023-03-31T12:12:48;10.83;;;5.07;;
3274;SDS011;1649;53.672;10.064;2023-03-31T12:15:22;7.43;;;4.40;;
3274;SDS011;1649;53.672;10.064;2023-03-31T12:18:02;6.73;;;4.20;;
3274;SDS011;1649;53.672;10.064;2023-03-31T12:20:46;10.93;;;4.80;;
3274;SDS011;1649;53.672;10.064;2023-03-31T12:23:17;9.67;;;4.93;;
3274;SDS011;1649;53.672;10.064;2023-03-31T12:28:19;9.30;;;4.27;;
3274;SDS011;1649;53.672;10.064;2023-03-31T12:30:47;10.67;;;4.13;;
3274;SDS011;1649;53.672;10.064;2023-03-31T12:33:59;5.73;;;3.40;;
3274;SDS011;1649;53.672;10.064;2023-03-31T12:44:26;9.77;;;3.87;;
3274;SDS011;1649;53.672;10.064;2023-03-31T12:47:17;8.40;;;4.03;;
3274;SDS011;1649;53.672;10.064;2023-03-31T12:55:39;8.10;;;4.33;;
3274;SDS011;1649;53.672;10.064;2023-03-31T13:05:58;9.20;;;5.33;;
3274;SDS011;1649;53.672;10.064;2023-03-31T13:11:40;11.03;;;6.00;;
3274;SDS011;1649;53.672;10.064;2023-03-31T13:14:12;12.00;;;6.30;;
3274;SDS011;1649;53.672;10.064;2023-03-31T13:16:47;10.40;;;6.47;;
3274;SDS011;1649;53.672;10.064;2023-03-31T13:19:26;13.23;;;6.97;;
3274;SDS011;1649;53.672;10.064;2023-03-31T13:21:59;13.83;;;7.17;;
3274;SDS011;1649;53.672;10.064;2023-03-31T13:24:26;11.00;;;7.20;;
3274;SDS011;1649;53.672;10.064;2023-03-31T13:26:53;12.57;;;6.57;;
3274;SDS011;1649;53.672;10.064;2023-03-31T13:29:24;10.30;;;6.60;;
3274;SDS011;1649;53.672;10.064;2023-03-31T13:34:29;12.13;;;7.63;;
3274;SDS011;1649;53.672;10.064;2023-03-31T13:37:16;11.00;;;6.60;;
3274;SDS011;1649;53.672;10.064;2023-03-31T13:40:06;15.20;;;7.90;;
3274;SDS011;1649;53.672;10.064;2023-03-31T13:43:01;14.20;;;6.60;;
3274;SDS011;1649;53.672;10.064;2023-03-31T13:45:58;12.27;;;7.07;;
3274;SDS011;1649;53.672;10.064;2023-03-31T13:59:14;13.80;;;8.87;;
3274;SDS011;1649;53.672;10.064;2023-03-31T14:02:00;14.40;;;7.70;;
3274;SDS011;1649;53.672;10.064;2023-03-31T14:04:57;13.33;;;8.23;;
3274;SDS011;1649;53.672;10.064;2023-03-31T14:10:01;13.20;;;7.40;;
3274;SDS011;1649;53.672;10.064;2023-03-31T14:12:29;12.10;;;8.20;;
3274;SDS011;1649;53.672;10.064;2023-03-31T14:14:57;14.40;;;8.37;;
3274;SDS011;1649;53.672;10.064;2023-03-31T14:17:25;14.70;;;8.23;;
3274;SDS011;1649;53.672;10.064;2023-03-31T14:25:01;13.17;;;8.60;;
3274;SDS011;1649;53.672;10.064;2023-03-31T14:39:01;12.50;;;8.50;;
3274;SDS011;1649;53.672;10.064;2023-03-31T14:41:28;10.90;;;7.60;;
3274;SDS011;1649;53.672;10.064;2023-03-31T14:43:54;10.33;;;7.70;;
3274;SDS011;1649;53.672;10.064;2023-03-31T14:46:22;15.13;;;7.70;;
3274;SDS011;1649;53.672;10.064;2023-03-31T14:48:49;11.97;;;7.70;;
3274;SDS011;1649;53.672;10.064;2023-03-31T14:51:16;13.50;;;5.80;;
3274;SDS011;1649;53.672;10.064;2023-03-31T14:53:47;10.43;;;6.30;;
3274;SDS011;1649;53.672;10.064;2023-03-31T14:56:20;10.97;;;6.83;;
3274;SDS011;1649;53.672;10.064;2023-03-31T14:58:52;11.93;;;6.20;;
3274;SDS011;1649;53.672;10.064;2023-03-31T15:01:20;10.83;;;6.50;;
3274;SDS011;1649;53.672;10.064;2023-03-31T15:03:50;11.13;;;6.83;;
3274;SDS011;1649;53.672;10.064;2023-03-31T15:06:17;10.30;;;6.00;;
3274;SDS011;1649;53.672;10.064;2023-03-31T15:08:43;7.40;;;4.73;;
3274;SDS011;1649;53.672;10.064;2023-03-31T15:11:13;8.80;;;5.20;;
3274;SDS011;1649;53.672;10.064;2023-03-31T15:13:44;9.40;;;5.37;;
3274;SDS011;1649;53.672;10.064;2023-03-31T15:16:18;7.27;;;4.87;;
3274;SDS011;1649;53.672;10.064;2023-03-31T15:18:59;8.77;;;4.70;;
3274;SDS011;1649;53.672;10.064;2023-03-31T15:21:30;8.40;;;5.30;;
3274;SDS011;1649;53.672;10.064;2023-03-31T15:23:57;7.97;;;5.03;;
3274;SDS011;1649;53.672;10.064;2023-03-31T15:26:27;10.10;;;5.60;;
3274;SDS011;1649;53.672;10.064;2023-03-31T15:29:04;6.80;;;4.60;;
3274;SDS011;1649;53.672;10.064;2023-03-31T15:31:40;7.23;;;4.90;;
3274;SDS011;1649;53.672;10.064;2023-03-31T15:34:24;7.70;;;4.70;;
3274;SDS011;1649;53.672;10.064;2023-03-31T15:36:54;7.33;;;4.60;;
3274;SDS011;1649;53.672;10.064;2023-03-31T15:39:21;9.17;;;4.60;;
3274;SDS011;1649;53.672;10.064;2023-03-31T15:41:51;7.40;;;4.47;;
3274;SDS011;1649;53.672;10.064;2023-03-31T15:44:27;10.73;;;4.93;;
3274;SDS011;1649;53.672;10.064;2023-03-31T15:47:00;8.70;;;5.40;;
3274;SDS011;1649;53.672;10.064;2023-03-31T15:49:36;8.27;;;5.20;;
3274;SDS011;1649;53.672;10.064;2023-03-31T15:52:18;9.17;;;4.87;;
3274;SDS011;1649;53.672;10.064;2023-03-31T15:54:50;7.70;;;5.33;;
3274;SDS011;1649;53.672;10.064;2023-03-31T15:57:16;8.53;;;4.70;;
3274;SDS011;1649;53.672;10.064;2023-03-31T15:59:45;8.87;;;4.60;;
3274;SDS011;1649;53.672;10.064;2023-03-31T16:02:14;6.07;;;3.90;;
3274;SDS011;1649;53.672;10.064;2023-03-31T16:04:42;7.67;;;4.97;;
3274;SDS011;1649;53.672;10.064;2023-03-31T16:07:14;7.33;;;4.70;;
3274;SDS011;1649;53.672;10.064;2023-03-31T16:12:19;7.07;;;4.13;;
3274;SDS011;1649;53.672;10.064;2023-03-31T16:15:04;6.37;;;3.90;;
3274;SDS011;1649;53.672;10.064;2023-03-31T16:20:19;6.90;;;4.00;;
3274;SDS011;1649;53.672;10.064;2023-03-31T16:22:51;7.13;;;3.57;;
3274;SDS011;1649;53.672;10.064;2023-03-31T16:25:19;6.20;;;3.60;;
3274;SDS011;1649;53.672;10.064;2023-03-31T16:27:47;6.67;;;4.13;;
3274;SDS011;1649;53.672;10.064;2023-03-31T16:30:18;6.10;;;3.57;;
3274;SDS011;1649;53.672;10.064;2023-03-31T16:32:56;5.90;;;3.40;;
3274;SDS011;1649;53.672;10.064;2023-03-31T16:35:37;6.07;;;3.40;;
3274;SDS011;1649;53.672;10.064;2023-03-31T16:38:05;5.47;;;3.40;;
3274;SDS011;1649;53.672;10.064;2023-03-31T16:40:35;6.27;;;3.10;;
3274;SDS011;1649;53.672;10.064;2023-03-31T16:43:19;6.27;;;3.73;;
3274;SDS011;1649;53.672;10.064;2023-03-31T16:45:50;6.30;;;3.80;;
3274;SDS011;1649;53.672;10.064;2023-03-31T16:48:20;6.90;;;3.10;;
3274;SDS011;1649;53.672;10.064;2023-03-31T16:50:48;6.50;;;3.50;;
3274;SDS011;1649;53.672;10.064;2023-03-31T16:53:17;5.67;;;3.00;;
3274;SDS011;1649;53.672;10.064;2023-03-31T16:55:44;7.00;;;3.50;;
3274;SDS011;1649;53.672;10.064;2023-03-31T16:58:10;6.97;;;3.80;;
3274;SDS011;1649;53.672;10.064;2023-03-31T17:00:36;8.27;;;4.40;;
3274;SDS011;1649;53.672;10.064;2023-03-31T17:03:04;9.17;;;5.10;;
3274;SDS011;1649;53.672;10.064;2023-03-31T17:05:30;10.63;;;5.07;;
3274;SDS011;1649;53.672;10.064;2023-03-31T17:07:57;9.10;;;5.03;;
3274;SDS011;1649;53.672;10.064;2023-03-31T17:10:23;14.30;;;4.80;;
3274;SDS011;1649;53.672;10.064;2023-03-31T17:12:49;7.17;;;4.10;;
3274;SDS011;1649;53.672;10.064;2023-03-31T17:15:15;6.70;;;3.80;;
3274;SDS011;1649;53.672;10.064;2023-03-31T17:17:41;6.57;;;4.27;;
3274;SDS011;1649;53.672;10.064;2023-03-31T17:20:07;5.60;;;3.77;;
3274;SDS011;1649;53.672;10.064;2023-03-31T17:22:33;7.77;;;4.00;;
3274;SDS011;1649;53.672;10.064;2023-03-31T17:24:59;7.87;;;4.30;;
3274;SDS011;1649;53.672;10.064;2023-03-31T17:27:25;6.33;;;3.57;;